Terminal Aerodrome Forecast
Issued by NWS

Home | Current Version | Previous Version | Text Only | Print | Product List | Glossary On
Versions: 1 2 3 4 5 6 7 8 9 10 11 12 13
000
FTUS45 KBOI 010520
TAFMYL
TAF
KMYL 010520Z 0106/0206 VRB06KT P6SM FEW250
     FM012000 19007G16KT P6SM VCSH BKN050 BKN200
     FM020100 VRB06KT P6SM SCT050 SCT200=

USA.gov is the U.S. government's official web portal to all federal, state and local government web resources and services.